Pagrindinis puslapis
METAR-TAF:

METAR-TAF

Oro uostai :

Palangos oro uostas

Palanga, Lietuva

platuma: 55-55-12N, ilguma: 021-03E, Aukštis: 10 m

Dabartinis oras

Ataskaita buvo paskelbta 28 minutes, ne 16:50 UTC
Vėjas 7 kt iš Rytų/Šiaurės Rytų, svyruoja nuo Šiaurės Rytų ir Rytų
Temperatūra 3°C
Drėgmė 81%
Slėgis 1033 hPa
Matomumas 10 km arba daugiau
Apsiniaukę ne aukštis 4600 ft

METAR: EYPA 191650Z 06007KT 040V100 9999 OVC046 03/00 Q1033 R01/1///95

Laikas: 19:18 (17:18 UTC)

Prognozė

Ataskaita buvo paskelbta 6 valandos ir 10 minutes, ne 11:08 UTC
Prognozė galioja nuo 19 metu 12 UTC su 20 metu 12 UTC
Vėjas 10 kt iš Rytų
Matomumas: 9000 m
Su prošvaistėmis ne aukštis 1500 ft
Laikinai
nuo 19 metu 18 UTC su 20 metu 06 UTC
Su prošvaistėmis ne aukštis 500 ft
lietus

TAF: EYPA 191108Z 1912/2012 08010KT 9000 BKN015 TEMPO 1918/2006 -RA BKN005

Orai ataskaitas ir orų prognozės (METAR, TAF).

turimą stotys yra geltonos ir raudonos taškus žemėlapyje.

Perkelti pele per norėdami pamatyti stoties vardą.

Tada spustelėkite, norėdami matyti oro stebėjimo ir prognozės.

Norėdami pakeisti žemėlapį: spustelėkite ant žalios mygtukų su juodo kryžiaus žemyn,; žalią mygtuką su brūkšneliu, jei norite nutolinti; arba žalių rodyklių gretimoms žemėlapius.


METAR-TAF: